Time;durP1;ratioP1;P1;durP2;ratioP2;P2;SDS_P1;SDS_P2;PMS_P1;PMS_P2;Temp;Humidity;BMP_temperature;BMP_pressure;BME280_temperature;BME280_humidity;BME280_pressure;Samples;Min_cycle;Max_cycle;Signal;HPM_P1;HPM_P2
2021/10/19 00:01:50;;;;;;;0.63;0.30;;;;;;;;;;5087625;28;20507;-60
2021/10/19 00:04:17;;;;;;;1.93;0.80;;;;;;;;;;5089459;28;20040;-61
2021/10/19 00:06:44;;;;;;;1.50;0.60;;;;;;;;;;5092997;28;20038;-60
2021/10/19 00:09:11;;;;;;;1.30;0.50;;;;;;;;;;5092598;28;20099;-61
2021/10/19 00:11:37;;;;;;;1.10;0.40;;;;;;;;;;5092573;28;20027;-61
2021/10/19 00:14:04;;;;;;;3.23;0.60;;;;;;;;;;5092105;28;20086;-60
2021/10/19 00:16:31;;;;;;;1.80;0.77;;;;;;;;;;5090927;28;20039;-60
2021/10/19 00:18:58;;;;;;;6.63;2.40;;;;;;;;;;5087681;28;20022;-60
2021/10/19 00:21:25;;;;;;;4.67;1.70;;;;;;;;;;5086788;28;20028;-61
2021/10/19 00:23:52;;;;;;;4.07;1.63;;;;;;;;;;5087171;28;20368;-60
2021/10/19 00:26:18;;;;;;;2.17;1.00;;;;;;;;;;5088434;28;20054;-60
2021/10/19 00:28:45;;;;;;;1.80;0.93;;;;;;;;;;5091998;28;20028;-60
2021/10/19 00:31:12;;;;;;;4.77;1.20;;;;;;;;;;5092557;28;20081;-60
2021/10/19 00:33:39;;;;;;;2.73;1.17;;;;;;;;;;5092034;28;20424;-61
2021/10/19 00:36:06;;;;;;;5.43;1.43;;;;;;;;;;5092217;28;20022;-60
2021/10/19 00:38:32;;;;;;;5.20;1.73;;;;;;;;;;5091230;28;20478;-61
2021/10/19 00:40:59;;;;;;;9.10;2.23;;;;;;;;;;5087283;28;20122;-61
2021/10/19 00:43:27;;;;;;;3.50;1.50;;;;;;;;;;5087433;28;20511;-60
2021/10/19 00:45:54;;;;;;;4.03;1.17;;;;;;;;;;5086781;28;20028;-60
2021/10/19 00:48:24;;;;;;;3.17;1.00;;;;;;;;;;5067155;28;20379;-60
2021/10/19 00:50:51;;;;;;;3.47;1.40;;;;;;;;;;5072130;28;20138;-61
2021/10/19 00:53:19;;;;;;;2.77;1.17;;;;;;;;;;5072105;28;20021;-61
2021/10/19 00:55:45;;;;;;;2.80;1.10;;;;;;;;;;5072068;28;20021;-60
2021/10/19 00:58:12;;;;;;;4.20;1.33;;;;;;;;;;5076386;28;20032;-61
2021/10/19 01:00:39;;;;;;;3.17;1.33;;;;;;;;;;5091498;28;20020;-60
2021/10/19 01:03:06;;;;;;;3.73;1.10;;;;;;;;;;5087170;28;20559;-61
2021/10/19 01:05:34;;;;;;;2.30;0.83;;;;;;;;;;5086853;28;20110;-60
2021/10/19 01:08:01;;;;;;;5.90;1.27;;;;;;;;;;5078592;28;20107;-61
2021/10/19 01:10:28;;;;;;;3.10;1.03;;;;;;;;;;5086517;28;20031;-60
2021/10/19 01:12:55;;;;;;;1.80;0.87;;;;;;;;;;5091675;28;20024;-59
2021/10/19 01:15:22;;;;;;;2.63;1.00;;;;;;;;;;5091868;28;20024;-59
2021/10/19 01:17:50;;;;;;;2.03;0.77;;;;;;;;;;5091122;28;20020;-59
2021/10/19 01:20:18;;;;;;;2.13;1.07;;;;;;;;;;5091585;28;20031;-58
2021/10/19 01:22:44;;;;;;;2.87;1.10;;;;;;;;;;5091575;28;20498;-59
2021/10/19 01:25:12;;;;;;;4.30;1.20;;;;;;;;;;5086620;28;20513;-59
2021/10/19 01:27:49;;;;;;;2.03;1.07;;;;;;;;;;5086646;28;20099;-59
2021/10/19 01:30:16;;;;;;;5.40;1.07;;;;;;;;;;5086197;28;20032;-60
2021/10/19 01:32:43;;;;;;;2.70;1.23;;;;;;;;;;5087376;28;20039;-59
2021/10/19 01:35:11;;;;;;;3.10;0.87;;;;;;;;;;5095012;28;20020;-59
2021/10/19 01:37:38;;;;;;;3.30;1.13;;;;;;;;;;5095154;28;20028;-58
2021/10/19 01:40:08;;;;;;;2.00;1.00;;;;;;;;;;5094998;28;20055;-59
2021/10/19 01:42:36;;;;;;;3.07;1.07;;;;;;;;;;5095055;28;20089;-59
2021/10/19 01:45:24;;;;;;;2.50;1.00;;;;;;;;;;5095166;28;20025;-61
2021/10/19 01:47:57;;;;;;;8.80;3.50;;;;;;;;;;5089900;28;20032;-61
2021/10/19 01:50:28;;;;;;;6.37;2.40;;;;;;;;;;5088821;28;20115;-59
2021/10/19 01:52:58;;;;;;;1.63;0.90;;;;;;;;;;5089984;28;20020;-60
2021/10/19 01:55:36;;;;;;;2.63;1.00;;;;;;;;;;5089946;28;20483;-60
2021/10/19 01:58:15;;;;;;;2.27;1.10;;;;;;;;;;5095126;28;20467;-60
2021/10/19 02:00:44;;;;;;;7.33;2.73;;;;;;;;;;5094518;28;20482;-59
2021/10/19 02:03:14;;;;;;;1.90;0.80;;;;;;;;;;5094789;28;20093;-60
2021/10/19 02:05:41;;;;;;;3.47;0.70;;;;;;;;;;5094813;28;20078;-59
2021/10/19 02:08:08;;;;;;;1.80;0.70;;;;;;;;;;5092881;28;20020;-60
2021/10/19 02:10:35;;;;;;;1.07;0.60;;;;;;;;;;5089112;28;20371;-60
2021/10/19 02:13:03;;;;;;;2.07;0.77;;;;;;;;;;5089657;28;20099;-60
2021/10/19 02:15:30;;;;;;;3.93;1.17;;;;;;;;;;5089271;28;20054;-60
2021/10/19 02:17:57;;;;;;;3.00;1.07;;;;;;;;;;5090228;28;20420;-60
2021/10/19 02:20:24;;;;;;;2.63;0.90;;;;;;;;;;5094272;28;20115;-60
2021/10/19 02:22:51;;;;;;;3.57;1.00;;;;;;;;;;5094469;28;20039;-60
2021/10/19 02:25:18;;;;;;;2.07;0.77;;;;;;;;;;5093926;28;20419;-60
2021/10/19 02:27:44;;;;;;;1.20;0.67;;;;;;;;;;5094497;28;20020;-58
2021/10/19 02:30:12;;;;;;;2.90;0.90;;;;;;;;;;5093290;28;20360;-58
2021/10/19 02:32:40;;;;;;;1.90;1.00;;;;;;;;;;5089038;28;20024;-58
2021/10/19 02:35:08;;;;;;;4.07;0.93;;;;;;;;;;5088914;28;20502;-58
2021/10/19 02:37:35;;;;;;;2.23;0.80;;;;;;;;;;5088066;28;20578;-60
2021/10/19 02:40:02;;;;;;;1.53;0.77;;;;;;;;;;5088311;28;20016;-59
2021/10/19 02:42:28;;;;;;;3.10;0.77;;;;;;;;;;5094139;28;20024;-59
2021/10/19 02:44:55;;;;;;;2.73;1.03;;;;;;;;;;5093327;28;20106;-58
2021/10/19 02:47:22;;;;;;;2.07;0.70;;;;;;;;;;5093910;28;20016;-58
2021/10/19 02:49:49;;;;;;;2.83;0.70;;;;;;;;;;5093747;28;20024;-59
2021/10/19 02:52:15;;;;;;;4.40;1.53;;;;;;;;;;5093834;28;20024;-59
2021/10/19 02:54:42;;;;;;;2.43;0.83;;;;;;;;;;5088273;28;20039;-60
2021/10/19 02:57:09;;;;;;;2.83;1.07;;;;;;;;;;5088071;28;20035;-59
2021/10/19 02:59:36;;;;;;;2.70;1.23;;;;;;;;;;5088651;28;20016;-60
2021/10/19 03:02:03;;;;;;;2.73;1.23;;;;;;;;;;5088320;28;20051;-59
2021/10/19 03:04:30;;;;;;;3.73;1.13;;;;;;;;;;5093158;28;20494;-59
2021/10/19 03:06:57;;;;;;;1.77;0.73;;;;;;;;;;5093297;28;20274;-60
2021/10/19 03:09:23;;;;;;;1.57;0.77;;;;;;;;;;5093099;28;20028;-60
2021/10/19 03:11:50;;;;;;;2.30;1.00;;;;;;;;;;5093584;28;20042;-60
2021/10/19 03:14:17;;;;;;;2.37;1.20;;;;;;;;;;5093126;28;20097;-59
2021/10/19 03:16:44;;;;;;;4.37;1.20;;;;;;;;;;5088596;28;20024;-59
2021/10/19 03:19:10;;;;;;;2.27;1.20;;;;;;;;;;5088043;28;20071;-59
2021/10/19 03:21:37;;;;;;;2.93;1.40;;;;;;;;;;5088188;28;20077;-58
2021/10/19 03:24:04;;;;;;;3.43;1.67;;;;;;;;;;5087253;28;20031;-59
2021/10/19 03:26:31;;;;;;;3.67;1.43;;;;;;;;;;5091904;28;20467;-58
2021/10/19 03:28:58;;;;;;;3.77;1.47;;;;;;;;;;5092974;28;20036;-59
2021/10/19 03:31:25;;;;;;;3.83;1.20;;;;;;;;;;5092809;28;20052;-58
2021/10/19 03:33:52;;;;;;;2.23;1.10;;;;;;;;;;5092867;28;20032;-59
2021/10/19 03:36:19;;;;;;;3.00;1.33;;;;;;;;;;5093135;28;20032;-59
2021/10/19 03:38:45;;;;;;;4.10;1.33;;;;;;;;;;5089063;28;20056;-60
2021/10/19 03:41:12;;;;;;;4.60;1.53;;;;;;;;;;5087446;28;20051;-61
2021/10/19 03:43:39;;;;;;;3.33;1.43;;;;;;;;;;5087737;28;20032;-60
2021/10/19 03:46:06;;;;;;;5.03;1.43;;;;;;;;;;5087147;28;20073;-59
2021/10/19 03:48:32;;;;;;;2.57;1.30;;;;;;;;;;5090370;28;20098;-59
2021/10/19 03:50:59;;;;;;;5.43;1.10;;;;;;;;;;5092896;28;20375;-59
2021/10/19 03:53:26;;;;;;;3.87;1.47;;;;;;;;;;5092766;28;20051;-59
2021/10/19 03:55:55;;;;;;;3.70;1.30;;;;;;;;;;5091823;28;20020;-60
2021/10/19 03:58:22;;;;;;;5.23;1.20;;;;;;;;;;5072127;28;20495;-61
2021/10/19 04:00:49;;;;;;;2.37;1.10;;;;;;;;;;5069120;28;20098;-61
2021/10/19 04:03:16;;;;;;;3.67;1.23;;;;;;;;;;5067107;28;20032;-60
2021/10/19 04:05:42;;;;;;;5.03;1.83;;;;;;;;;;5066806;28;20033;-60
2021/10/19 04:08:09;;;;;;;4.37;1.40;;;;;;;;;;5067360;28;20024;-59
2021/10/19 04:10:36;;;;;;;1.97;1.00;;;;;;;;;;5089821;28;20367;-59
2021/10/19 04:13:03;;;;;;;2.10;1.20;;;;;;;;;;5092535;28;20057;-61
2021/10/19 04:15:29;;;;;;;2.93;1.50;;;;;;;;;;5092316;28;20035;-61
2021/10/19 04:17:56;;;;;;;3.10;1.73;;;;;;;;;;5092502;28;20020;-61
2021/10/19 04:20:23;;;;;;;4.83;2.07;;;;;;;;;;5092030;28;20020;-62
2021/10/19 04:22:50;;;;;;;3.40;1.70;;;;;;;;;;5089233;28;20039;-61
2021/10/19 04:25:16;;;;;;;6.50;1.90;;;;;;;;;;5087131;28;20546;-60
2021/10/19 04:27:43;;;;;;;4.97;1.53;;;;;;;;;;5087290;28;20023;-60
2021/10/19 04:30:11;;;;;;;4.23;1.40;;;;;;;;;;5087168;28;20028;-59
2021/10/19 04:32:37;;;;;;;3.60;1.30;;;;;;;;;;5088281;28;20054;-59
2021/10/19 04:35:04;;;;;;;3.27;1.30;;;;;;;;;;5092266;28;20046;-59
2021/10/19 04:37:32;;;;;;;5.67;1.50;;;;;;;;;;5092059;28;20043;-60
2021/10/19 04:40:02;;;;;;;2.77;1.23;;;;;;;;;;5091773;28;20383;-59
2021/10/19 04:42:39;;;;;;;1.93;1.07;;;;;;;;;;5092038;28;20059;-59
2021/10/19 04:45:17;;;;;;;2.80;1.47;;;;;;;;;;5089077;28;20020;-59
2021/10/19 04:47:55;;;;;;;3.63;1.50;;;;;;;;;;5086422;28;20032;-59
2021/10/19 04:50:26;;;;;;;2.27;1.03;;;;;;;;;;5086853;28;20034;-59
2021/10/19 04:52:57;;;;;;;4.20;1.30;;;;;;;;;;5086768;28;20389;-61
2021/10/19 04:55:29;;;;;;;3.60;1.50;;;;;;;;;;5089424;28;20027;-59
2021/10/19 04:58:02;;;;;;;5.90;1.17;;;;;;;;;;5092085;28;20085;-59
2021/10/19 05:00:35;;;;;;;3.37;1.27;;;;;;;;;;5091554;28;20108;-59
2021/10/19 05:03:09;;;;;;;2.40;1.17;;;;;;;;;;5091935;28;20035;-59
2021/10/19 05:05:40;;;;;;;3.83;1.47;;;;;;;;;;5092054;28;20063;-59
2021/10/19 05:08:10;;;;;;;5.17;1.40;;;;;;;;;;5089961;28;20268;-59
2021/10/19 05:10:43;;;;;;;2.60;1.40;;;;;;;;;;5090813;28;20030;-59
2021/10/19 05:13:13;;;;;;;1.67;0.80;;;;;;;;;;5068974;28;20483;-59
2021/10/19 05:15:45;;;;;;;1.93;0.97;;;;;;;;;;5070536;28;20095;-59
2021/10/19 05:18:19;;;;;;;6.13;1.17;;;;;;;;;;5073945;28;20025;-59
2021/10/19 05:20:48;;;;;;;2.40;1.50;;;;;;;;;;5075333;28;20082;-59
2021/10/19 05:23:19;;;;;;;2.17;1.00;;;;;;;;;;5095216;28;20043;-59
2021/10/19 05:25:49;;;;;;;2.30;1.00;;;;;;;;;;5094848;28;20482;-59
2021/10/19 05:28:23;;;;;;;3.00;0.90;;;;;;;;;;5095537;28;20057;-59
2021/10/19 05:30:56;;;;;;;2.37;1.20;;;;;;;;;;5090938;28;20034;-59
2021/10/19 05:33:27;;;;;;;2.03;0.70;;;;;;;;;;5090457;28;20020;-60
2021/10/19 05:35:58;;;;;;;2.47;0.90;;;;;;;;;;5090094;28;20028;-59
2021/10/19 05:38:33;;;;;;;2.10;0.80;;;;;;;;;;5090058;28;20024;-59
2021/10/19 05:41:05;;;;;;;1.80;0.80;;;;;;;;;;5094530;28;20035;-59
2021/10/19 05:43:31;;;;;;;4.17;0.70;;;;;;;;;;5093581;28;20352;-59
2021/10/19 05:45:58;;;;;;;1.90;0.80;;;;;;;;;;5093420;28;20028;-59
2021/10/19 05:48:25;;;;;;;1.03;0.57;;;;;;;;;;5093840;28;20020;-59
2021/10/19 05:50:52;;;;;;;2.37;0.70;;;;;;;;;;5094807;28;20028;-59
2021/10/19 05:53:19;;;;;;;1.00;0.60;;;;;;;;;;5089843;28;20080;-59
2021/10/19 05:55:46;;;;;;;1.17;0.70;;;;;;;;;;5089800;28;20028;-59
2021/10/19 05:58:13;;;;;;;0.93;0.60;;;;;;;;;;5089660;28;20035;-60
2021/10/19 06:00:39;;;;;;;1.87;0.50;;;;;;;;;;5089342;28;20017;-60
2021/10/19 06:03:06;;;;;;;0.87;0.50;;;;;;;;;;5094090;28;20043;-59
2021/10/19 06:05:34;;;;;;;0.87;0.40;;;;;;;;;;5094787;28;20056;-59
2021/10/19 06:08:02;;;;;;;2.00;0.33;;;;;;;;;;5094915;28;20099;-59
2021/10/19 06:10:29;;;;;;;3.33;0.50;;;;;;;;;;5095026;28;20032;-59
2021/10/19 06:12:56;;;;;;;0.87;0.43;;;;;;;;;;5094529;28;20028;-59
2021/10/19 06:15:25;;;;;;;0.40;0.30;;;;;;;;;;5089826;28;20032;-59
2021/10/19 06:17:53;;;;;;;1.27;0.30;;;;;;;;;;5089271;28;20051;-59
2021/10/19 06:20:20;;;;;;;0.93;0.40;;;;;;;;;;5087930;28;20031;-59
2021/10/19 06:22:47;;;;;;;3.57;0.30;;;;;;;;;;5089299;28;20148;-59
2021/10/19 06:25:14;;;;;;;0.87;0.30;;;;;;;;;;5093032;28;20155;-59
2021/10/19 06:27:41;;;;;;;0.60;0.40;;;;;;;;;;5094781;28;20032;-59
2021/10/19 06:30:08;;;;;;;1.27;0.50;;;;;;;;;;5094446;28;20486;-59
2021/10/19 06:32:37;;;;;;;1.80;0.57;;;;;;;;;;5094107;28;20028;-59
2021/10/19 06:35:05;;;;;;;1.10;0.57;;;;;;;;;;5094303;28;20032;-59
2021/10/19 06:37:31;;;;;;;0.87;0.30;;;;;;;;;;5089625;28;20028;-58
2021/10/19 06:39:58;;;;;;;0.83;0.40;;;;;;;;;;5089039;28;20024;-58
2021/10/19 06:42:25;;;;;;;2.10;0.20;;;;;;;;;;5088744;28;20604;-59
2021/10/19 06:44:52;;;;;;;0.47;0.30;;;;;;;;;;5088863;28;20534;-60
2021/10/19 06:47:18;;;;;;;1.50;0.60;;;;;;;;;;5092496;28;20416;-59
2021/10/19 06:49:45;;;;;;;2.10;0.50;;;;;;;;;;5093644;28;20035;-58
2021/10/19 06:52:12;;;;;;;1.33;0.37;;;;;;;;;;5093657;28;20028;-59
2021/10/19 06:54:39;;;;;;;2.90;0.50;;;;;;;;;;5094195;28;20463;-59
2021/10/19 06:57:06;;;;;;;0.83;0.50;;;;;;;;;;5094008;28;20028;-60
2021/10/19 06:59:33;;;;;;;1.53;0.60;;;;;;;;;;5089761;28;20036;-59
2021/10/19 07:01:59;;;;;;;0.33;0.30;;;;;;;;;;5088618;28;20158;-59
2021/10/19 07:04:26;;;;;;;0.60;0.47;;;;;;;;;;5088389;28;20032;-59
2021/10/19 07:06:53;;;;;;;1.70;0.40;;;;;;;;;;5088347;28;20073;-59
2021/10/19 07:09:20;;;;;;;0.53;0.40;;;;;;;;;;5090718;28;20034;-59
2021/10/19 07:11:46;;;;;;;1.67;0.60;;;;;;;;;;5093834;28;20067;-59
2021/10/19 07:14:13;;;;;;;1.57;0.57;;;;;;;;;;5093730;28;20490;-59
2021/10/19 07:16:40;;;;;;;0.77;0.43;;;;;;;;;;5093691;28;20117;-58
2021/10/19 07:19:09;;;;;;;4.63;0.60;;;;;;;;;;5093201;28;20024;-59
2021/10/19 07:21:39;;;;;;;1.10;0.50;;;;;;;;;;5089969;28;20024;-59
2021/10/19 07:24:06;;;;;;;1.67;0.67;;;;;;;;;;5087831;28;20107;-58
2021/10/19 07:26:33;;;;;;;1.00;0.60;;;;;;;;;;5088024;28;20020;-59
2021/10/19 07:29:00;;;;;;;0.80;0.37;;;;;;;;;;5088089;28;20093;-59
2021/10/19 07:31:27;;;;;;;0.53;0.40;;;;;;;;;;5090332;28;20028;-59
2021/10/19 07:33:53;;;;;;;0.80;0.30;;;;;;;;;;5093316;28;20046;-59
2021/10/19 07:36:20;;;;;;;0.67;0.47;;;;;;;;;;5093238;28;20028;-59
2021/10/19 07:38:48;;;;;;;0.60;0.40;;;;;;;;;;5092654;28;20052;-58
2021/10/19 07:41:15;;;;;;;0.97;0.50;;;;;;;;;;5093085;28;20035;-59
2021/10/19 07:43:42;;;;;;;1.27;0.57;;;;;;;;;;5089450;28;20043;-58
2021/10/19 07:46:09;;;;;;;0.27;0.20;;;;;;;;;;5087738;28;20028;-59
2021/10/19 07:48:36;;;;;;;0.73;0.50;;;;;;;;;;5087722;28;20028;-59
2021/10/19 07:51:02;;;;;;;0.57;0.30;;;;;;;;;;5087671;28;20016;-59
2021/10/19 07:53:29;;;;;;;0.67;0.40;;;;;;;;;;5089895;28;20411;-58
2021/10/19 07:55:56;;;;;;;2.33;0.37;;;;;;;;;;5092628;28;20063;-58
2021/10/19 07:58:23;;;;;;;0.90;0.40;;;;;;;;;;5092774;28;20061;-58
2021/10/19 08:00:49;;;;;;;0.67;0.40;;;;;;;;;;5092938;28;20020;-59
2021/10/19 08:03:16;;;;;;;0.20;0.20;;;;;;;;;;5092480;28;20081;-59
2021/10/19 08:05:44;;;;;;;1.97;0.30;;;;;;;;;;5090033;28;20032;-58
2021/10/19 08:08:12;;;;;;;0.47;0.20;;;;;;;;;;5087236;28;20031;-59
2021/10/19 08:10:40;;;;;;;0.50;0.40;;;;;;;;;;5086719;28;20517;-58
2021/10/19 08:13:09;;;;;;;0.63;0.20;;;;;;;;;;5087004;28;20032;-59
2021/10/19 08:15:36;;;;;;;2.20;0.30;;;;;;;;;;5089456;28;20107;-58
2021/10/19 08:18:03;;;;;;;0.30;0.20;;;;;;;;;;5092578;28;20363;-59
2021/10/19 08:20:30;;;;;;;0.80;0.40;;;;;;;;;;5092681;28;20031;-58
2021/10/19 08:22:57;;;;;;;0.40;0.30;;;;;;;;;;5092228;28;20039;-58
2021/10/19 08:25:25;;;;;;;0.63;0.40;;;;;;;;;;5092253;28;20028;-58
2021/10/19 08:27:51;;;;;;;0.53;0.33;;;;;;;;;;5089869;28;20379;-58
2021/10/19 08:30:20;;;;;;;0.80;0.40;;;;;;;;;;5086872;28;20036;-59
2021/10/19 08:32:47;;;;;;;1.27;0.33;;;;;;;;;;5087165;28;20467;-59
2021/10/19 08:35:14;;;;;;;1.57;0.30;;;;;;;;;;5087123;28;20044;-58
2021/10/19 08:37:42;;;;;;;3.30;0.40;;;;;;;;;;5088436;28;20032;-58
2021/10/19 08:40:10;;;;;;;0.20;0.10;;;;;;;;;;5092406;28;20059;-58
2021/10/19 08:42:44;;;;;;;0.10;0.10;;;;;;;;;;5090926;28;20050;-59
2021/10/19 08:45:12;;;;;;;1.08;0.30;;;;;;;;;;5095558;28;20471;-59
2021/10/19 08:47:40;;;;;;;0.80;0.30;;;;;;;;;;5095346;28;20028;-58
2021/10/19 08:50:07;;;;;;;1.00;0.30;;;;;;;;;;5093468;28;20024;-58
2021/10/19 08:52:34;;;;;;;1.00;0.27;;;;;;;;;;5090616;28;20020;-59
2021/10/19 08:55:00;;;;;;;2.00;0.97;;;;;;;;;;5091049;28;20017;-58
2021/10/19 08:57:27;;;;;;;0.40;0.23;;;;;;;;;;5091061;28;20024;-58
2021/10/19 08:59:55;;;;;;;0.23;0.23;;;;;;;;;;5092944;28;20028;-58
2021/10/19 09:02:35;;;;;;;0.37;0.30;;;;;;;;;;5096255;28;20359;-59
2021/10/19 09:05:02;;;;;;;1.57;0.30;;;;;;;;;;5095440;28;20032;-58
2021/10/19 09:07:29;;;;;;;1.07;0.30;;;;;;;;;;5096144;28;20023;-58
2021/10/19 09:09:56;;;;;;;1.50;0.40;;;;;;;;;;5096152;28;20020;-59
2021/10/19 09:12:24;;;;;;;1.37;0.20;;;;;;;;;;5093297;28;20038;-58
2021/10/19 09:14:51;;;;;;;1.90;0.30;;;;;;;;;;5090076;28;20020;-58
2021/10/19 09:17:18;;;;;;;0.37;0.20;;;;;;;;;;5090427;28;20039;-58
2021/10/19 09:19:46;;;;;;;0.83;0.30;;;;;;;;;;5090165;28;20523;-58
2021/10/19 09:22:13;;;;;;;1.27;0.50;;;;;;;;;;5092260;28;20031;-58
2021/10/19 09:24:40;;;;;;;1.07;0.40;;;;;;;;;;5095673;28;20032;-59
2021/10/19 09:27:10;;;;;;;0.67;0.30;;;;;;;;;;5095761;28;20032;-58
2021/10/19 09:29:50;;;;;;;0.70;0.37;;;;;;;;;;5095518;28;20429;-58
2021/10/19 09:32:19;;;;;;;0.93;0.27;;;;;;;;;;5095103;28;20031;-59
2021/10/19 09:34:46;;;;;;;0.70;0.20;;;;;;;;;;5092893;28;20036;-59
2021/10/19 09:37:20;;;;;;;0.47;0.40;;;;;;;;;;5089998;28;20055;-59
2021/10/19 09:39:51;;;;;;;1.70;0.30;;;;;;;;;;5089805;28;20024;-58
2021/10/19 09:42:25;;;;;;;2.40;0.60;;;;;;;;;;5089998;28;20059;-58
2021/10/19 09:44:59;;;;;;;0.75;0.40;;;;;;;;;;5092878;28;20076;-58
2021/10/19 09:47:27;;;;;;;1.70;0.37;;;;;;;;;;5095335;28;20379;-58
2021/10/19 09:49:54;;;;;;;0.53;0.20;;;;;;;;;;5095091;28;20099;-58
2021/10/19 09:52:21;;;;;;;0.23;0.20;;;;;;;;;;5095322;28;20153;-59
2021/10/19 09:54:52;;;;;;;0.60;0.27;;;;;;;;;;5095264;28;20095;-59
2021/10/19 09:57:19;;;;;;;1.47;0.70;;;;;;;;;;5091743;28;20392;-59
2021/10/19 09:59:46;;;;;;;1.17;0.70;;;;;;;;;;5089779;28;20028;-58
2021/10/19 10:02:16;;;;;;;0.87;0.50;;;;;;;;;;5089322;28;20071;-59
2021/10/19 10:04:44;;;;;;;0.20;0.20;;;;;;;;;;5089597;28;20047;-59
2021/10/19 10:07:15;;;;;;;3.00;0.40;;;;;;;;;;5072375;28;20109;-58
2021/10/19 10:09:45;;;;;;;1.43;0.37;;;;;;;;;;5074275;28;20474;-59
2021/10/19 10:12:12;;;;;;;0.53;0.40;;;;;;;;;;5074438;28;20432;-58
2021/10/19 10:14:43;;;;;;;1.83;0.60;;;;;;;;;;5074654;28;20105;-58
2021/10/19 10:17:10;;;;;;;1.30;0.40;;;;;;;;;;5093974;28;20035;-58
2021/10/19 10:19:37;;;;;;;0.97;0.43;;;;;;;;;;5091076;28;20372;-58
2021/10/19 10:22:18;;;;;;;1.03;0.50;;;;;;;;;;5089320;28;20039;-58
2021/10/19 10:24:45;;;;;;;0.47;0.33;;;;;;;;;;5089319;28;20085;-59
2021/10/19 10:27:16;;;;;;;2.80;0.60;;;;;;;;;;5088876;28;20043;-58
2021/10/19 10:29:44;;;;;;;1.03;0.50;;;;;;;;;;5092158;28;20031;-58
2021/10/19 10:32:29;;;;;;;1.10;0.50;;;;;;;;;;5094446;28;20028;-58
2021/10/19 10:35:09;;;;;;;2.00;0.40;;;;;;;;;;5094483;28;20035;-58
2021/10/19 10:37:36;;;;;;;2.33;0.73;;;;;;;;;;5094786;28;20371;-58
2021/10/19 10:40:03;;;;;;;0.70;0.40;;;;;;;;;;5093978;28;20031;-58
2021/10/19 10:42:39;;;;;;;0.33;0.20;;;;;;;;;;5088940;28;20034;-59
2021/10/19 10:45:17;;;;;;;0.50;0.40;;;;;;;;;;5088717;28;20421;-59
2021/10/19 10:47:55;;;;;;;0.93;0.50;;;;;;;;;;5088870;28;20023;-58
2021/10/19 10:50:22;;;;;;;3.93;0.63;;;;;;;;;;5089140;28;20488;-58
2021/10/19 10:53:02;;;;;;;0.97;0.30;;;;;;;;;;5093791;28;20020;-58
2021/10/19 10:55:33;;;;;;;2.27;0.40;;;;;;;;;;5093735;28;20028;-58
2021/10/19 10:58:00;;;;;;;1.13;0.50;;;;;;;;;;5094049;28;20059;-58
2021/10/19 11:00:27;;;;;;;0.37;0.30;;;;;;;;;;5093668;28;20035;-59
2021/10/19 11:03:14;;;;;;;2.40;0.57;;;;;;;;;;5091790;28;20097;-58
2021/10/19 11:05:55;;;;;;;1.43;0.83;;;;;;;;;;5087847;28;20032;-58
2021/10/19 11:08:23;;;;;;;2.03;1.00;;;;;;;;;;5088343;28;20039;-58
2021/10/19 11:10:51;;;;;;;3.10;1.00;;;;;;;;;;5088538;28;20023;-59
2021/10/19 11:13:18;;;;;;;2.97;0.77;;;;;;;;;;5089256;28;20082;-59
2021/10/19 11:15:51;;;;;;;1.73;0.60;;;;;;;;;;5093767;28;20099;-58
2021/10/19 11:18:18;;;;;;;1.30;0.53;;;;;;;;;;5093485;28;20032;-58
2021/10/19 11:20:52;;;;;;;2.20;0.80;;;;;;;;;;5093309;28;20032;-58
2021/10/19 11:23:19;;;;;;;2.10;0.70;;;;;;;;;;5093169;28;20119;-59
2021/10/19 11:25:46;;;;;;;1.60;0.57;;;;;;;;;;5090268;28;20028;-58
2021/10/19 11:28:13;;;;;;;3.80;0.70;;;;;;;;;;5088097;28;20012;-59
2021/10/19 11:30:40;;;;;;;1.87;0.70;;;;;;;;;;5067652;28;20025;-59
2021/10/19 11:33:07;;;;;;;4.10;0.70;;;;;;;;;;5067737;28;20111;-58
2021/10/19 11:35:34;;;;;;;1.90;0.70;;;;;;;;;;5069904;28;20040;-58
2021/10/19 11:38:02;;;;;;;3.40;0.93;;;;;;;;;;5072766;28;20021;-58
2021/10/19 11:40:28;;;;;;;3.60;0.60;;;;;;;;;;5090281;28;20024;-58
2021/10/19 11:42:57;;;;;;;1.07;0.70;;;;;;;;;;5093007;28;20028;-58
2021/10/19 11:45:25;;;;;;;1.63;0.60;;;;;;;;;;5092556;28;20032;-58
2021/10/19 11:47:51;;;;;;;0.97;0.70;;;;;;;;;;5090370;28;20078;-58
2021/10/19 11:50:29;;;;;;;3.23;0.70;;;;;;;;;;5087801;28;20032;-58
2021/10/19 11:52:57;;;;;;;1.33;0.53;;;;;;;;;;5087656;28;20103;-58
2021/10/19 11:55:24;;;;;;;3.17;0.80;;;;;;;;;;5087228;28;20034;-58
2021/10/19 11:57:52;;;;;;;2.97;0.60;;;;;;;;;;5089817;28;20287;-57
2021/10/19 12:00:20;;;;;;;1.47;0.80;;;;;;;;;;5092520;28;20551;-57
2021/10/19 12:02:54;;;;;;;0.50;0.47;;;;;;;;;;5092831;28;20485;-57
2021/10/19 12:05:22;;;;;;;1.67;0.80;;;;;;;;;;5092993;28;20816;-57
2021/10/19 12:07:51;;;;;;;3.17;1.60;;;;;;;;;;5092274;28;20028;-57
2021/10/19 12:10:24;;;;;;;0.93;0.60;;;;;;;;;;5070997;28;20047;-56
2021/10/19 12:12:52;;;;;;;4.07;0.80;;;;;;;;;;5087121;28;20039;-56
2021/10/19 12:15:20;;;;;;;1.47;0.50;;;;;;;;;;5086989;28;20046;-57
2021/10/19 12:17:57;;;;;;;2.97;0.80;;;;;;;;;;5086244;28;20031;-57
2021/10/19 12:20:25;;;;;;;1.03;0.60;;;;;;;;;;5090213;28;20032;-58
2021/10/19 12:22:57;;;;;;;1.07;0.60;;;;;;;;;;5092376;28;20035;-57
2021/10/19 12:25:23;;;;;;;0.73;0.60;;;;;;;;;;5092164;28;20378;-57
2021/10/19 12:27:50;;;;;;;1.17;0.60;;;;;;;;;;5092785;28;20618;-57
2021/10/19 12:30:18;;;;;;;1.60;0.70;;;;;;;;;;5091929;28;20067;-57
2021/10/19 12:32:45;;;;;;;6.27;1.17;;;;;;;;;;5088196;28;20779;-56
2021/10/19 12:35:13;;;;;;;3.07;0.70;;;;;;;;;;5087063;28;20097;-57
2021/10/19 12:37:41;;;;;;;3.70;0.90;;;;;;;;;;5086779;28;20103;-57
2021/10/19 12:40:12;;;;;;;3.23;0.90;;;;;;;;;;5086703;28;20532;-57
2021/10/19 12:42:38;;;;;;;6.13;3.30;;;;;;;;;;5090114;28;20020;-57
2021/10/19 12:45:05;;;;;;;6.03;4.10;;;;;;;;;;5092286;28;20020;-57
2021/10/19 12:47:32;;;;;;;7.40;4.60;;;;;;;;;;5091866;28;20028;-57
2021/10/19 12:49:59;;;;;;;5.00;3.50;;;;;;;;;;5092166;28;20285;-56
2021/10/19 12:52:26;;;;;;;3.97;2.33;;;;;;;;;;5091747;28;20024;-57
2021/10/19 12:54:53;;;;;;;6.00;1.97;;;;;;;;;;5088676;28;20105;-56
2021/10/19 12:57:19;;;;;;;8.57;5.37;;;;;;;;;;5086832;28;20027;-57
2021/10/19 12:59:47;;;;;;;4.87;2.90;;;;;;;;;;5086808;28;20016;-57
2021/10/19 13:02:14;;;;;;;5.77;2.43;;;;;;;;;;5086259;28;20555;-57
2021/10/19 13:04:41;;;;;;;5.67;2.00;;;;;;;;;;5089298;28;20394;-57
2021/10/19 13:07:07;;;;;;;6.83;1.87;;;;;;;;;;5091879;28;20115;-56
2021/10/19 13:09:34;;;;;;;3.13;1.40;;;;;;;;;;5092187;28;20485;-57
2021/10/19 13:12:01;;;;;;;4.47;1.67;;;;;;;;;;5091967;28;20086;-57
2021/10/19 13:14:29;;;;;;;6.60;1.90;;;;;;;;;;5091938;28;20027;-56
2021/10/19 13:16:58;;;;;;;7.60;2.33;;;;;;;;;;5088068;28;20530;-58
2021/10/19 13:19:25;;;;;;;8.27;4.50;;;;;;;;;;5086331;28;20024;-58
2021/10/19 13:21:52;;;;;;;7.33;3.70;;;;;;;;;;5086507;28;20475;-58
2021/10/19 13:24:19;;;;;;;3.43;1.90;;;;;;;;;;5086446;28;20089;-58
2021/10/19 13:26:46;;;;;;;5.47;1.67;;;;;;;;;;5089103;28;20035;-58
2021/10/19 13:29:12;;;;;;;3.47;1.60;;;;;;;;;;5093744;28;20038;-59
2021/10/19 13:31:40;;;;;;;6.70;2.60;;;;;;;;;;5095274;28;20028;-58
2021/10/19 13:34:07;;;;;;;4.93;1.73;;;;;;;;;;5095650;28;20032;-58
2021/10/19 13:36:34;;;;;;;2.33;1.00;;;;;;;;;;5095423;28;20024;-58
2021/10/19 13:39:02;;;;;;;1.77;0.83;;;;;;;;;;5092072;28;20028;-58
2021/10/19 13:41:29;;;;;;;1.63;0.70;;;;;;;;;;5090094;28;20111;-59
2021/10/19 13:43:56;;;;;;;1.63;0.77;;;;;;;;;;5089623;28;20039;-58
2021/10/19 13:46:22;;;;;;;2.40;0.77;;;;;;;;;;5089715;28;20532;-59
2021/10/19 13:48:49;;;;;;;1.17;0.50;;;;;;;;;;5092620;28;20493;-58
2021/10/19 13:51:16;;;;;;;2.00;1.40;;;;;;;;;;5095256;28;20054;-59
2021/10/19 13:53:43;;;;;;;2.43;1.20;;;;;;;;;;5094881;28;20093;-59
2021/10/19 13:56:10;;;;;;;3.80;2.20;;;;;;;;;;5095230;28;20024;-58
2021/10/19 13:58:37;;;;;;;7.17;2.83;;;;;;;;;;5095016;28;20020;-59
2021/10/19 14:01:03;;;;;;;9.47;3.37;;;;;;;;;;5092157;28;20690;-58
2021/10/19 14:03:30;;;;;;;5.00;2.17;;;;;;;;;;5089415;28;20046;-59
2021/10/19 14:05:57;;;;;;;2.63;1.10;;;;;;;;;;5089680;28;20028;-59
2021/10/19 14:08:24;;;;;;;1.30;0.80;;;;;;;;;;5089272;28;20024;-59
2021/10/19 14:10:53;;;;;;;3.03;1.27;;;;;;;;;;5091801;28;20474;-59
2021/10/19 14:13:20;;;;;;;4.70;1.80;;;;;;;;;;5094886;28;20043;-58
2021/10/19 14:15:46;;;;;;;3.73;1.50;;;;;;;;;;5094683;28;20371;-59
2021/10/19 14:18:13;;;;;;;3.30;1.80;;;;;;;;;;5094415;28;20417;-58
2021/10/19 14:20:40;;;;;;;7.00;2.10;;;;;;;;;;5094798;28;20648;-59
2021/10/19 14:23:07;;;;;;;7.70;2.80;;;;;;;;;;5091872;28;21634;-58
2021/10/19 14:25:34;;;;;;;5.47;3.10;;;;;;;;;;5089289;28;20031;-59
2021/10/19 14:28:01;;;;;;;9.40;3.80;;;;;;;;;;5088875;28;20032;-58
2021/10/19 14:30:28;;;;;;;5.90;2.90;;;;;;;;;;5088862;28;20032;-59
2021/10/19 14:32:55;;;;;;;5.93;2.70;;;;;;;;;;5090747;28;20035;-58
2021/10/19 14:35:22;;;;;;;6.50;3.10;;;;;;;;;;5094499;28;20023;-58
2021/10/19 14:37:48;;;;;;;5.07;2.50;;;;;;;;;;5094333;28;20028;-58
2021/10/19 14:40:16;;;;;;;6.20;2.20;;;;;;;;;;5093449;28;20016;-58
2021/10/19 14:42:43;;;;;;;5.73;2.67;;;;;;;;;;5093697;28;20035;-58
2021/10/19 14:45:10;;;;;;;7.53;3.70;;;;;;;;;;5091703;28;20032;-59
2021/10/19 14:47:36;;;;;;;6.93;3.60;;;;;;;;;;5088690;28;20026;-59
2021/10/19 14:50:04;;;;;;;7.67;2.93;;;;;;;;;;5088799;28;20081;-59